createdAt,value
2023-05-17T00:02:23.352Z,1.08
2023-05-17T00:04:53.677Z,1.08
2023-05-17T00:07:24.148Z,2.85
2023-05-17T00:09:52.363Z,0.70
2023-05-17T00:12:21.115Z,4.57
2023-05-17T00:14:50.881Z,3.10
2023-05-17T00:17:19.208Z,1.92
2023-05-17T00:19:47.962Z,5.10
2023-05-17T00:22:16.595Z,1.52
2023-05-17T00:24:46.860Z,3.63
2023-05-17T00:27:14.924Z,2.55
2023-05-17T00:29:43.394Z,4.00
2023-05-17T00:32:11.776Z,1.13
2023-05-17T00:34:40.098Z,2.47
2023-05-17T00:37:08.933Z,1.73
2023-05-17T00:39:37.012Z,4.05
2023-05-17T00:42:08.188Z,2.95
2023-05-17T00:44:36.614Z,5.43
2023-05-17T00:47:05.099Z,3.70
2023-05-17T00:49:33.460Z,5.47
2023-05-17T00:52:02.152Z,4.63
2023-05-17T00:54:30.535Z,1.55
2023-05-17T00:57:01.045Z,5.25
2023-05-17T00:59:31.804Z,2.13
2023-05-17T01:02:01.002Z,1.83
2023-05-17T01:04:31.585Z,4.60
2023-05-17T01:07:00.743Z,3.08
2023-05-17T01:09:29.145Z,3.33
2023-05-17T01:12:10.397Z,2.38
2023-05-17T01:14:53.010Z,10.93
2023-05-17T01:17:30.381Z,2.30
2023-05-17T01:20:07.139Z,1.08
2023-05-17T01:22:45.431Z,1.70
2023-05-17T01:25:24.657Z,3.92
2023-05-17T01:27:57.641Z,0.90
2023-05-17T01:30:27.727Z,1.63
2023-05-17T01:32:59.387Z,3.45
2023-05-17T01:35:28.023Z,2.95
2023-05-17T01:37:56.684Z,2.20
2023-05-17T01:40:25.963Z,1.95
2023-05-17T01:43:04.207Z,2.80
2023-05-17T01:45:40.222Z,2.70
2023-05-17T01:48:17.295Z,3.35
2023-05-17T01:50:51.562Z,2.92
2023-05-17T01:53:27.675Z,2.90
2023-05-17T01:55:58.758Z,5.03
2023-05-17T01:58:31.796Z,2.33
2023-05-17T02:01:03.623Z,3.42
2023-05-17T02:03:32.018Z,2.42
2023-05-17T02:06:00.695Z,2.53
2023-05-17T02:08:29.112Z,2.28
2023-05-17T02:10:57.477Z,4.53
2023-05-17T02:13:25.684Z,4.90
2023-05-17T02:15:55.599Z,1.85
2023-05-17T02:18:23.937Z,2.13
2023-05-17T02:20:52.384Z,1.13
2023-05-17T02:23:21.012Z,2.35
2023-05-17T02:25:49.807Z,8.32
2023-05-17T02:28:18.120Z,1.77
2023-05-17T02:30:46.625Z,2.25
2023-05-17T02:33:16.938Z,4.47
2023-05-17T02:35:46.210Z,3.40
2023-05-17T02:38:14.875Z,2.28
2023-05-17T02:40:43.360Z,2.60
2023-05-17T02:43:11.670Z,3.72
2023-05-17T02:45:40.170Z,1.63
2023-05-17T02:48:08.733Z,2.47
2023-05-17T02:50:39.051Z,1.23
2023-05-17T02:53:07.897Z,2.22
2023-05-17T02:55:36.147Z,2.55
2023-05-17T02:58:05.209Z,3.35
2023-05-17T03:00:33.722Z,2.40
2023-05-17T03:03:02.357Z,1.95
2023-05-17T03:05:30.935Z,3.00
2023-05-17T03:08:00.795Z,2.67
2023-05-17T03:10:28.982Z,3.05
2023-05-17T03:12:57.584Z,0.80
2023-05-17T03:15:29.683Z,2.90
2023-05-17T03:17:58.689Z,2.60
2023-05-17T03:20:27.776Z,2.38
2023-05-17T03:22:55.965Z,4.40
2023-05-17T03:25:25.581Z,2.80
2023-05-17T03:27:54.254Z,6.57
2023-05-17T03:30:23.040Z,4.20
2023-05-17T03:32:51.806Z,2.58
2023-05-17T03:35:20.801Z,3.13
2023-05-17T03:37:50.026Z,1.25
2023-05-17T03:40:18.646Z,1.73
2023-05-17T03:42:48.621Z,0.98
2023-05-17T03:45:17.629Z,1.10
2023-05-17T03:47:46.318Z,3.72
2023-05-17T03:50:15.136Z,0.82
2023-05-17T03:52:43.288Z,4.75
2023-05-17T03:55:12.190Z,1.00
2023-05-17T03:57:42.264Z,2.10
2023-05-17T04:00:14.272Z,3.75
2023-05-17T04:02:42.986Z,9.90
2023-05-17T04:05:13.177Z,3.13
2023-05-17T04:07:41.468Z,2.65
2023-05-17T04:10:10.712Z,3.25
2023-05-17T04:12:39.636Z,2.53
2023-05-17T04:15:09.446Z,2.30
2023-05-17T04:17:39.473Z,2.65
2023-05-17T04:20:08.557Z,3.20
2023-05-17T04:22:37.032Z,4.00
2023-05-17T04:25:06.104Z,1.15
2023-05-17T04:27:34.459Z,10.02
2023-05-17T04:30:03.024Z,3.42
2023-05-17T04:32:34.379Z,1.52
2023-05-17T04:35:04.990Z,1.77
2023-05-17T04:37:33.469Z,5.72
2023-05-17T04:40:02.323Z,2.95
2023-05-17T04:42:31.019Z,2.50
2023-05-17T04:44:59.144Z,1.25
2023-05-17T04:47:28.367Z,2.65
2023-05-17T04:49:56.736Z,3.35
2023-05-17T04:52:27.017Z,2.55
2023-05-17T04:54:55.525Z,3.60
2023-05-17T04:57:23.829Z,0.70
2023-05-17T04:59:52.210Z,1.85
2023-05-17T05:02:20.664Z,3.17
2023-05-17T05:04:49.378Z,4.72
2023-05-17T05:07:17.822Z,2.42
2023-05-17T05:09:48.063Z,2.55
2023-05-17T05:12:16.593Z,3.90
2023-05-17T05:14:45.256Z,4.53
2023-05-17T05:17:13.695Z,5.47
2023-05-17T05:19:42.052Z,5.53
2023-05-17T05:22:10.456Z,2.10
2023-05-17T05:24:39.317Z,3.17
2023-05-17T05:27:09.217Z,1.67
2023-05-17T05:29:37.684Z,2.72
2023-05-17T05:32:06.620Z,6.50
2023-05-17T05:34:35.535Z,3.55
2023-05-17T05:37:04.414Z,2.60
2023-05-17T05:39:32.678Z,5.70
2023-05-17T05:42:01.774Z,1.55
2023-05-17T05:44:31.905Z,1.98
2023-05-17T05:47:00.379Z,1.33
2023-05-17T05:49:28.621Z,5.45
2023-05-17T05:51:56.924Z,5.03
2023-05-17T05:54:25.147Z,2.25
2023-05-17T05:56:54.617Z,3.97
2023-05-17T05:59:23.328Z,3.22
2023-05-17T06:01:53.346Z,7.38
2023-05-17T06:04:29.786Z,4.22
2023-05-17T06:07:05.913Z,8.35
2023-05-17T06:09:34.756Z,3.25
2023-05-17T06:12:03.165Z,2.25
2023-05-17T06:14:32.196Z,1.58
2023-05-17T06:17:02.068Z,4.45
2023-05-17T06:19:30.938Z,2.72
2023-05-17T06:21:59.901Z,2.42
2023-05-17T06:24:29.057Z,3.75
2023-05-17T06:26:57.626Z,2.53
2023-05-17T06:29:26.037Z,2.65
2023-05-17T06:31:56.583Z,2.22
2023-05-17T06:34:26.273Z,3.17
2023-05-17T06:36:54.637Z,3.70
2023-05-17T06:39:24.307Z,6.97
2023-05-17T06:41:53.047Z,8.30
2023-05-17T06:44:21.849Z,4.22
2023-05-17T06:46:51.049Z,5.20
2023-05-17T06:49:19.646Z,2.80
2023-05-17T06:51:49.647Z,5.10
2023-05-17T06:54:19.870Z,4.93
2023-05-17T06:56:48.056Z,4.13
2023-05-17T06:59:16.675Z,3.47
2023-05-17T07:01:47.573Z,3.03
2023-05-17T07:04:16.053Z,2.47
2023-05-17T07:06:44.374Z,1.63
2023-05-17T07:09:14.277Z,3.03
2023-05-17T07:11:42.487Z,6.35
2023-05-17T07:14:11.251Z,4.45
2023-05-17T07:16:40.466Z,6.30
2023-05-17T07:19:09.016Z,7.82
2023-05-17T07:21:37.681Z,4.43
2023-05-17T07:24:06.451Z,6.95
2023-05-17T07:26:36.246Z,3.70
2023-05-17T07:29:04.550Z,3.75
2023-05-17T07:31:32.902Z,4.40
2023-05-17T07:34:01.298Z,2.70
2023-05-17T07:36:31.005Z,5.00
2023-05-17T07:39:00.512Z,5.88
2023-05-17T07:41:29.236Z,6.80
2023-05-17T07:43:58.970Z,5.47
2023-05-17T07:46:27.910Z,3.53
2023-05-17T07:48:58.781Z,2.97
2023-05-17T07:51:28.306Z,6.65
2023-05-17T07:53:57.093Z,4.68
2023-05-17T07:56:25.406Z,6.10
2023-05-17T07:58:54.222Z,4.03
2023-05-17T08:01:24.318Z,6.25
2023-05-17T08:03:52.632Z,7.32
2023-05-17T08:06:24.091Z,3.55
2023-05-17T08:08:52.210Z,3.28
2023-05-17T08:11:20.500Z,5.18
2023-05-17T08:13:49.341Z,4.32
2023-05-17T08:16:17.578Z,5.22
2023-05-17T08:18:47.366Z,10.75
2023-05-17T08:21:15.824Z,5.20
2023-05-17T08:23:43.993Z,4.35
2023-05-17T08:26:13.132Z,8.70
2023-05-17T08:28:41.730Z,6.35
2023-05-17T08:31:09.873Z,4.30
2023-05-17T08:33:38.555Z,3.42
2023-05-17T08:36:09.382Z,2.03
2023-05-17T08:38:37.519Z,4.38
2023-05-17T08:41:05.893Z,4.22
2023-05-17T08:43:34.472Z,4.68
2023-05-17T08:46:04.357Z,3.83
2023-05-17T08:48:33.166Z,5.75
2023-05-17T08:51:01.788Z,5.80
2023-05-17T08:53:31.470Z,5.55
2023-05-17T08:56:01.404Z,2.97
2023-05-17T08:58:48.142Z,5.13
2023-05-17T09:01:27.015Z,3.50
2023-05-17T09:03:56.353Z,7.20
2023-05-17T09:06:25.616Z,3.95
2023-05-17T09:09:01.830Z,5.43
2023-05-17T09:11:31.889Z,6.00
2023-05-17T09:14:00.622Z,5.18
2023-05-17T09:16:30.562Z,3.00
2023-05-17T09:19:00.346Z,8.00
2023-05-17T09:21:31.157Z,7.68
2023-05-17T09:24:07.293Z,5.38
2023-05-17T09:26:40.574Z,2.80
2023-05-17T09:29:13.029Z,7.40
2023-05-17T09:31:42.047Z,4.45
2023-05-17T09:34:10.753Z,3.10
2023-05-17T09:36:41.465Z,3.08
2023-05-17T09:39:13.624Z,9.88
2023-05-17T09:41:45.735Z,5.32
2023-05-17T09:44:15.636Z,4.97
2023-05-17T09:46:46.353Z,6.07
2023-05-17T09:49:15.844Z,5.38
2023-05-17T09:51:45.956Z,6.43
2023-05-17T09:54:17.676Z,3.38
2023-05-17T09:56:46.752Z,7.60
2023-05-17T09:59:16.885Z,4.68
2023-05-17T10:01:46.545Z,4.35
2023-05-17T10:04:20.672Z,4.68
2023-05-17T10:06:52.231Z,7.75
2023-05-17T10:09:24.140Z,4.18
2023-05-17T10:11:54.534Z,3.00
2023-05-17T10:14:28.632Z,5.38
2023-05-17T10:16:58.012Z,6.70
2023-05-17T10:19:27.347Z,4.38
2023-05-17T10:22:08.212Z,2.30
2023-05-17T10:24:50.218Z,4.40
2023-05-17T10:27:18.864Z,3.40
2023-05-17T10:29:50.224Z,6.72
2023-05-17T10:32:23.487Z,3.63
2023-05-17T10:35:02.177Z,4.53
2023-05-17T10:37:40.726Z,4.53
2023-05-17T10:40:14.073Z,4.35
2023-05-17T10:42:46.829Z,5.90
2023-05-17T10:45:15.487Z,6.28
2023-05-17T10:47:46.432Z,4.25
2023-05-17T10:50:15.821Z,2.85
2023-05-17T10:52:51.167Z,8.40
2023-05-17T10:55:26.841Z,4.25
2023-05-17T10:58:17.525Z,7.88
2023-05-17T11:00:48.250Z,4.47
2023-05-17T11:03:19.221Z,3.28
2023-05-17T11:06:22.745Z,2.90
2023-05-17T11:09:09.774Z,3.45
2023-05-17T11:11:59.818Z,3.10
2023-05-17T11:14:29.163Z,3.25
2023-05-17T11:16:59.266Z,3.65
2023-05-17T11:19:28.352Z,5.10
2023-05-17T11:21:56.898Z,3.97
2023-05-17T11:24:28.202Z,6.32
2023-05-17T11:27:01.120Z,6.07
2023-05-17T11:29:32.008Z,6.82
2023-05-17T11:32:00.521Z,2.60
2023-05-17T11:34:29.387Z,4.57
2023-05-17T11:36:58.514Z,3.95
2023-05-17T11:39:27.146Z,5.05
2023-05-17T11:41:57.927Z,6.32
2023-05-17T11:44:30.508Z,7.13
2023-05-17T11:47:03.999Z,5.28
2023-05-17T11:49:36.123Z,5.22
2023-05-17T11:52:06.346Z,11.35
2023-05-17T11:54:35.471Z,5.82
2023-05-17T11:57:05.897Z,5.30
2023-05-17T11:59:40.550Z,3.00
2023-05-17T12:02:09.196Z,5.40
2023-05-17T12:04:39.231Z,4.68
2023-05-17T12:07:11.082Z,3.20
2023-05-17T12:09:40.829Z,7.93
2023-05-17T12:12:11.959Z,4.25
2023-05-17T12:14:44.697Z,2.10
2023-05-17T12:17:22.281Z,4.78
2023-05-17T12:19:54.422Z,5.80
2023-05-17T12:22:22.998Z,7.05
2023-05-17T12:24:51.438Z,4.72
2023-05-17T12:27:29.421Z,4.80
2023-05-17T12:29:57.714Z,3.00
2023-05-17T12:32:27.264Z,3.50
2023-05-17T12:34:55.939Z,7.70
2023-05-17T12:37:27.138Z,3.97
2023-05-17T12:39:56.263Z,4.70
2023-05-17T12:42:25.572Z,5.03
2023-05-17T12:44:55.493Z,6.25
2023-05-17T12:47:27.012Z,2.97
2023-05-17T12:49:56.093Z,5.00
2023-05-17T12:52:25.082Z,6.07
2023-05-17T12:54:54.080Z,3.50
2023-05-17T12:57:22.211Z,4.45
2023-05-17T12:59:51.759Z,4.40
2023-05-17T13:02:24.367Z,6.38
2023-05-17T13:04:56.242Z,3.97
2023-05-17T13:07:26.208Z,2.83
2023-05-17T13:09:54.559Z,3.20
2023-05-17T13:12:25.462Z,3.00
2023-05-17T13:14:55.209Z,5.65
2023-05-17T13:17:28.699Z,3.92
2023-05-17T13:19:58.535Z,4.55
2023-05-17T13:22:27.365Z,2.42
2023-05-17T13:24:56.552Z,5.85
2023-05-17T13:27:24.937Z,4.40
2023-05-17T13:29:53.225Z,3.78
2023-05-17T13:32:22.948Z,5.63
2023-05-17T13:34:53.010Z,7.00
2023-05-17T13:37:22.654Z,4.72
2023-05-17T13:39:51.162Z,3.20
2023-05-17T13:42:20.647Z,4.85
2023-05-17T13:44:49.916Z,6.28
2023-05-17T13:47:18.650Z,2.83
2023-05-17T13:49:47.441Z,5.13
2023-05-17T13:52:19.053Z,7.65
2023-05-17T13:54:47.742Z,6.03
2023-05-17T13:57:16.798Z,5.78
2023-05-17T13:59:45.938Z,3.67
2023-05-17T14:02:14.370Z,3.70
2023-05-17T14:04:42.768Z,6.43
2023-05-17T14:07:12.577Z,4.90
2023-05-17T14:09:43.165Z,6.15
2023-05-17T14:12:11.617Z,3.08
2023-05-17T14:14:40.282Z,11.75
2023-05-17T14:17:08.885Z,5.78
2023-05-17T14:19:37.766Z,4.07
2023-05-17T14:22:06.462Z,5.35
2023-05-17T14:24:36.207Z,6.05
2023-05-17T14:27:07.528Z,4.53
2023-05-17T14:29:35.804Z,5.82
2023-05-17T14:32:05.058Z,4.65
2023-05-17T14:34:33.435Z,5.88
2023-05-17T14:37:02.403Z,6.55
2023-05-17T14:39:31.862Z,9.45
2023-05-17T14:42:01.497Z,5.90
2023-05-17T14:44:31.316Z,3.92
2023-05-17T14:47:01.459Z,3.97
2023-05-17T14:49:29.933Z,3.22
2023-05-17T14:51:58.223Z,4.82
2023-05-17T14:54:29.903Z,2.92
2023-05-17T14:56:58.596Z,5.50
2023-05-17T14:59:27.626Z,3.47
2023-05-17T15:01:57.399Z,8.27
2023-05-17T15:04:26.047Z,7.03
2023-05-17T15:06:54.790Z,3.95
2023-05-17T15:09:24.280Z,6.90
2023-05-17T15:11:52.663Z,4.28
2023-05-17T15:14:22.669Z,3.67
2023-05-17T15:16:52.828Z,5.85
2023-05-17T15:19:24.215Z,2.90
2023-05-17T15:21:52.460Z,4.55
2023-05-17T15:24:20.940Z,4.88
2023-05-17T15:26:49.209Z,4.47
2023-05-17T15:29:17.506Z,6.10
2023-05-17T15:31:45.889Z,2.63
2023-05-17T15:34:14.469Z,3.60
2023-05-17T15:36:44.908Z,3.53
2023-05-17T15:39:13.153Z,3.20
2023-05-17T15:41:41.594Z,4.93
2023-05-17T15:44:10.194Z,3.40
2023-05-17T15:46:40.345Z,4.25
2023-05-17T15:49:09.112Z,6.97
2023-05-17T15:51:37.594Z,5.10
2023-05-17T15:54:07.702Z,5.32
2023-05-17T15:56:38.441Z,5.50
2023-05-17T15:59:08.053Z,3.47
2023-05-17T16:01:36.686Z,5.07
2023-05-17T16:04:05.274Z,2.28
2023-05-17T16:06:36.369Z,4.60
2023-05-17T16:09:06.485Z,3.78
2023-05-17T16:11:37.661Z,4.47
2023-05-17T16:14:06.345Z,7.07
2023-05-17T16:16:34.991Z,5.05
2023-05-17T16:19:04.878Z,1.88
2023-05-17T16:21:35.663Z,3.65
2023-05-17T16:24:04.735Z,1.95
2023-05-17T16:26:33.516Z,3.13
2023-05-17T16:29:03.760Z,4.43
2023-05-17T16:31:32.881Z,2.40
2023-05-17T16:34:03.545Z,3.00
2023-05-17T16:36:32.423Z,2.72
2023-05-17T16:39:01.680Z,2.50
2023-05-17T16:41:31.906Z,6.90
2023-05-17T16:44:00.406Z,5.03
2023-05-17T16:46:31.172Z,4.22
2023-05-17T16:48:59.757Z,6.93
2023-05-17T16:51:28.825Z,5.30
2023-05-17T16:53:57.251Z,5.25
2023-05-17T16:56:25.837Z,4.47
2023-05-17T16:58:54.438Z,3.60
2023-05-17T17:01:23.412Z,8.98
2023-05-17T17:03:53.785Z,3.22
2023-05-17T17:06:22.860Z,2.45
2023-05-17T17:08:51.256Z,2.33
2023-05-17T17:11:22.138Z,5.15
2023-05-17T17:13:51.050Z,3.75
2023-05-17T17:16:20.604Z,2.50
2023-05-17T17:18:49.978Z,3.75
2023-05-17T17:21:20.111Z,4.93
2023-05-17T17:23:48.772Z,4.30
2023-05-17T17:26:17.385Z,6.00
2023-05-17T17:28:45.892Z,1.80
2023-05-17T17:31:18.511Z,4.10
2023-05-17T17:33:47.104Z,4.50
2023-05-17T17:36:16.026Z,2.40
2023-05-17T17:38:46.728Z,7.25
2023-05-17T17:41:15.823Z,3.17
2023-05-17T17:43:47.605Z,3.80
2023-05-17T17:46:16.222Z,3.90
2023-05-17T17:48:45.645Z,3.08
2023-05-17T17:51:14.081Z,3.17
2023-05-17T17:53:42.504Z,2.83
2023-05-17T17:56:12.583Z,2.63
2023-05-17T17:58:41.409Z,4.57
2023-05-17T18:01:09.768Z,4.35
2023-05-17T18:03:38.200Z,3.88
2023-05-17T18:06:07.356Z,4.70
2023-05-17T18:08:35.798Z,6.55
2023-05-17T18:11:04.058Z,2.80
2023-05-17T18:13:33.799Z,3.17
2023-05-17T18:16:02.332Z,4.53
2023-05-17T18:18:30.948Z,5.60
2023-05-17T18:20:59.299Z,4.70
2023-05-17T18:23:27.843Z,3.20
2023-05-17T18:25:56.415Z,6.75
2023-05-17T18:28:38.182Z,3.88
2023-05-17T18:31:12.271Z,2.88
2023-05-17T18:33:40.862Z,3.17
2023-05-17T18:36:09.329Z,2.00
2023-05-17T18:38:37.677Z,3.53
2023-05-17T18:41:06.466Z,2.25
2023-05-17T18:43:35.042Z,3.75
2023-05-17T18:46:04.242Z,2.80
2023-05-17T18:48:36.616Z,4.72
2023-05-17T18:51:05.330Z,10.05
2023-05-17T18:53:33.900Z,2.58
2023-05-17T18:56:03.069Z,2.90
2023-05-17T18:58:33.662Z,6.55
2023-05-17T19:01:02.948Z,4.05
2023-05-17T19:03:33.011Z,5.63
2023-05-17T19:06:04.305Z,4.10
2023-05-17T19:08:33.026Z,3.45
2023-05-17T19:11:06.702Z,5.40
2023-05-17T19:13:35.688Z,5.93
2023-05-17T19:16:04.556Z,6.15
2023-05-17T19:18:32.920Z,5.05
2023-05-17T19:21:03.284Z,4.05
2023-05-17T19:23:32.863Z,4.78
2023-05-17T19:26:01.329Z,8.18
2023-05-17T19:28:30.003Z,6.97
2023-05-17T19:30:58.405Z,3.45
2023-05-17T19:33:26.879Z,6.43
2023-05-17T19:35:55.452Z,4.63
2023-05-17T19:38:25.763Z,4.80
2023-05-17T19:40:54.302Z,6.18
2023-05-17T19:43:22.942Z,4.25
2023-05-17T19:45:51.501Z,5.28
2023-05-17T19:48:19.882Z,4.55
2023-05-17T19:50:49.022Z,6.72
2023-05-17T19:53:17.300Z,7.13
2023-05-17T19:55:47.499Z,7.82
2023-05-17T19:58:16.038Z,4.95
2023-05-17T20:00:44.934Z,4.63
2023-05-17T20:03:13.412Z,7.90
2023-05-17T20:05:42.974Z,4.05
2023-05-17T20:08:11.641Z,8.77
2023-05-17T20:10:43.785Z,4.20
2023-05-17T20:13:16.312Z,8.18
2023-05-17T20:15:45.008Z,5.10
2023-05-17T20:18:13.504Z,5.43
2023-05-17T20:20:43.147Z,6.05
2023-05-17T20:23:13.650Z,6.32
2023-05-17T20:25:42.903Z,11.23
2023-05-17T20:28:11.994Z,5.25
2023-05-17T20:30:45.103Z,4.13
2023-05-17T20:33:14.412Z,5.18
2023-05-17T20:35:43.598Z,6.07
2023-05-17T20:38:12.611Z,6.88
2023-05-17T20:40:42.199Z,7.10
2023-05-17T20:43:10.639Z,3.33
2023-05-17T20:45:39.421Z,7.50
2023-05-17T20:48:09.286Z,6.47
2023-05-17T20:50:39.255Z,7.18
2023-05-17T20:53:07.846Z,5.85
2023-05-17T20:55:36.907Z,11.25
2023-05-17T20:58:05.367Z,5.22
2023-05-17T21:00:33.952Z,6.50
2023-05-17T21:03:03.074Z,6.20
2023-05-17T21:05:36.364Z,93.63
2023-05-17T21:08:05.391Z,166.83
2023-05-17T21:10:33.757Z,94.82
2023-05-17T21:13:02.202Z,11.63
2023-05-17T21:15:30.971Z,26.85
2023-05-17T21:18:00.003Z,194.98
2023-05-17T21:20:28.838Z,137.93
2023-05-17T21:22:58.548Z,41.88
2023-05-17T21:25:27.153Z,221.45
2023-05-17T21:27:55.624Z,289.02
2023-05-17T21:30:26.648Z,118.25
2023-05-17T21:32:55.361Z,314.30
2023-05-17T21:35:24.252Z,106.53
2023-05-17T21:37:53.295Z,98.88
2023-05-17T21:40:23.511Z,540.17
2023-05-17T21:42:52.670Z,251.23
2023-05-17T21:45:21.421Z,170.43
2023-05-17T21:47:51.315Z,53.95
2023-05-17T21:50:20.427Z,106.50
2023-05-17T21:52:48.783Z,289.80
2023-05-17T21:55:17.874Z,539.45
2023-05-17T21:57:48.196Z,127.43
2023-05-17T22:00:17.771Z,780.03
2023-05-17T22:02:47.435Z,229.15
2023-05-17T22:05:16.472Z,313.70
2023-05-17T22:07:45.162Z,95.90
2023-05-17T22:10:14.739Z,171.80
2023-05-17T22:12:43.349Z,452.75
2023-05-17T22:15:14.118Z,445.80
2023-05-17T22:17:51.267Z,90.32
2023-05-17T22:20:24.047Z,500.38
2023-05-17T22:22:52.818Z,176.95
2023-05-17T22:25:22.767Z,416.98
2023-05-17T22:27:51.392Z,181.07
2023-05-17T22:30:21.464Z,342.05
2023-05-17T22:32:50.227Z,384.70
2023-05-17T22:35:18.973Z,124.78
2023-05-17T22:37:47.775Z,143.30
2023-05-17T22:40:16.585Z,67.57
2023-05-17T22:42:45.030Z,412.73
2023-05-17T22:45:14.917Z,76.53
2023-05-17T22:47:47.153Z,99.35
2023-05-17T22:50:16.816Z,287.90
2023-05-17T22:52:46.873Z,219.70
2023-05-17T22:55:15.468Z,51.30
2023-05-17T22:57:44.072Z,91.00
2023-05-17T23:00:14.136Z,205.80
2023-05-17T23:02:43.143Z,92.55
2023-05-17T23:05:13.258Z,247.75
2023-05-17T23:07:43.501Z,225.80
2023-05-17T23:10:13.021Z,118.35
2023-05-17T23:12:41.869Z,248.77
2023-05-17T23:15:11.809Z,48.72
2023-05-17T23:17:40.506Z,36.72
2023-05-17T23:20:12.559Z,26.30
2023-05-17T23:22:43.458Z,8.82
2023-05-17T23:25:12.999Z,94.25
2023-05-17T23:27:42.059Z,55.00
2023-05-17T23:30:11.785Z,108.88
2023-05-17T23:32:40.498Z,57.65
2023-05-17T23:35:11.047Z,125.72
2023-05-17T23:37:39.716Z,197.15
2023-05-17T23:40:12.072Z,269.60
2023-05-17T23:42:41.967Z,280.05
2023-05-17T23:45:11.023Z,126.43
2023-05-17T23:47:41.549Z,153.15
2023-05-17T23:50:11.068Z,94.80
2023-05-17T23:52:40.298Z,205.00
2023-05-17T23:55:12.410Z,286.05
2023-05-17T23:57:42.673Z,287.98
